sensor_id;sensor_type;location;lat;lon;timestamp;temperature;humidity
53432;DHT22;39329;44.754;19.680;2022-09-16T06:50:46;25.30;99.90
53432;DHT22;39329;44.754;19.680;2022-09-16T06:53:12;24.70;99.90
53432;DHT22;39329;44.754;19.680;2022-09-16T06:55:37;24.50;99.90
53432;DHT22;39329;44.754;19.680;2022-09-16T06:58:05;23.80;99.90
53432;DHT22;39329;44.754;19.680;2022-09-16T07:00:31;23.90;99.90
53432;DHT22;39329;44.754;19.680;2022-09-16T07:03:00;23.50;99.90
53432;DHT22;39329;44.754;19.680;2022-09-16T07:05:26;23.20;99.90
53432;DHT22;39329;44.754;19.680;2022-09-16T07:07:52;23.00;99.90
53432;DHT22;39329;44.754;19.680;2022-09-16T07:10:17;22.70;99.90
53432;DHT22;39329;44.754;19.680;2022-09-16T07:12:43;22.50;99.90
53432;DHT22;39329;44.754;19.680;2022-09-16T07:15:08;22.50;99.90
53432;DHT22;39329;44.754;19.680;2022-09-16T07:17:34;22.40;99.90
53432;DHT22;39329;44.754;19.680;2022-09-16T07:20:00;22.30;99.90
53432;DHT22;39329;44.754;19.680;2022-09-16T07:22:25;22.30;99.90
53432;DHT22;39329;44.754;19.680;2022-09-16T07:24:54;22.20;99.90
53432;DHT22;39329;44.754;19.680;2022-09-16T07:27:20;22.20;99.90
53432;DHT22;39329;44.754;19.680;2022-09-16T07:29:45;22.20;99.90
53432;DHT22;39329;44.754;19.680;2022-09-16T07:32:11;22.00;99.90
53432;DHT22;39329;44.754;19.680;2022-09-16T07:34:36;22.00;99.90
53432;DHT22;39329;44.754;19.680;2022-09-16T07:39:28;22.10;99.90
53432;DHT22;39329;44.754;19.680;2022-09-16T07:41:53;22.60;99.90
53432;DHT22;39329;44.754;19.680;2022-09-16T07:44:20;22.90;99.90
53432;DHT22;39329;44.754;19.680;2022-09-16T07:46:46;23.60;99.90
53432;DHT22;39329;44.754;19.680;2022-09-16T08:06:23;23.70;99.90
53432;DHT22;39329;44.754;19.680;2022-09-16T08:08:52;25.00;99.90
53432;DHT22;39329;44.754;19.680;2022-09-16T08:18:36;25.90;99.90
53432;DHT22;39329;44.754;19.680;2022-09-16T08:21:09;25.50;99.90
53432;DHT22;39329;44.754;19.680;2022-09-16T08:23:35;25.20;99.90
53432;DHT22;39329;44.754;19.680;2022-09-16T08:30:53;24.70;99.90
53432;DHT22;39329;44.754;19.680;2022-09-16T08:33:19;24.50;99.90
53432;DHT22;39329;44.754;19.680;2022-09-16T08:35:56;24.60;99.90
53432;DHT22;39329;44.754;19.680;2022-09-16T08:38:22;24.70;99.90
53432;DHT22;39329;44.754;19.680;2022-09-16T08:40:47;24.40;99.90
53432;DHT22;39329;44.754;19.680;2022-09-16T08:43:25;24.50;99.90
53432;DHT22;39329;44.754;19.680;2022-09-16T08:45:55;24.70;99.90
53432;DHT22;39329;44.754;19.680;2022-09-16T08:48:41;24.50;99.90
53432;DHT22;39329;44.754;19.680;2022-09-16T08:51:08;24.40;99.90
53432;DHT22;39329;44.754;19.680;2022-09-16T08:53:39;24.00;99.90
53432;DHT22;39329;44.754;19.680;2022-09-16T08:56:09;23.80;99.90
53432;DHT22;39329;44.754;19.680;2022-09-16T08:58:39;23.70;99.90
53432;DHT22;39329;44.754;19.680;2022-09-16T09:01:17;23.60;99.90
53432;DHT22;39329;44.754;19.680;2022-09-16T09:03:45;23.60;99.90
53432;DHT22;39329;44.754;19.680;2022-09-16T09:06:19;23.60;99.90
53432;DHT22;39329;44.754;19.680;2022-09-16T09:11:39;23.80;99.90
53432;DHT22;39329;44.754;19.680;2022-09-16T09:42:44;22.60;99.90
53432;DHT22;39329;44.754;19.680;2022-09-16T09:45:24;22.70;99.90
53432;DHT22;39329;44.754;19.680;2022-09-16T09:47:56;22.90;99.90
53432;DHT22;39329;44.754;19.680;2022-09-16T09:50:31;23.00;99.90
53432;DHT22;39329;44.754;19.680;2022-09-16T09:55:36;23.10;99.90
53432;DHT22;39329;44.754;19.680;2022-09-16T09:58:08;23.30;99.90
53432;DHT22;39329;44.754;19.680;2022-09-16T10:00:35;23.50;99.90
53432;DHT22;39329;44.754;19.680;2022-09-16T10:03:10;23.90;99.90
53432;DHT22;39329;44.754;19.680;2022-09-16T10:05:37;24.30;99.90
53432;DHT22;39329;44.754;19.680;2022-09-16T10:10:45;24.00;99.90
53432;DHT22;39329;44.754;19.680;2022-09-16T10:13:11;24.20;99.90
53432;DHT22;39329;44.754;19.680;2022-09-16T10:15:37;24.40;99.90
53432;DHT22;39329;44.754;19.680;2022-09-16T10:18:08;24.30;99.90
53432;DHT22;39329;44.754;19.680;2022-09-16T10:20:36;24.20;99.90
53432;DHT22;39329;44.754;19.680;2022-09-16T10:23:04;24.30;99.90
53432;DHT22;39329;44.754;19.680;2022-09-16T10:25:30;24.30;99.90
53432;DHT22;39329;44.754;19.680;2022-09-16T10:27:59;24.20;99.90
53432;DHT22;39329;44.754;19.680;2022-09-16T10:30:26;24.20;99.90
53432;DHT22;39329;44.754;19.680;2022-09-16T10:38:34;23.80;99.90
53432;DHT22;39329;44.754;19.680;2022-09-16T10:41:17;23.70;99.90
53432;DHT22;39329;44.754;19.680;2022-09-16T10:43:48;23.90;99.90
53432;DHT22;39329;44.754;19.680;2022-09-16T10:46:15;23.80;99.90
53432;DHT22;39329;44.754;19.680;2022-09-16T10:48:41;23.80;99.90
53432;DHT22;39329;44.754;19.680;2022-09-16T10:51:14;23.50;99.90
53432;DHT22;39329;44.754;19.680;2022-09-16T10:53:44;23.30;99.90
53432;DHT22;39329;44.754;19.680;2022-09-16T10:56:17;23.10;99.90
53432;DHT22;39329;44.754;19.680;2022-09-16T10:58:43;23.00;99.90
53432;DHT22;39329;44.754;19.680;2022-09-16T11:16:23;22.60;99.90
53432;DHT22;39329;44.754;19.680;2022-09-16T11:19:06;22.60;99.90
53432;DHT22;39329;44.754;19.680;2022-09-16T11:27:04;22.50;99.90
53432;DHT22;39329;44.754;19.680;2022-09-16T11:34:54;22.20;99.90
53432;DHT22;39329;44.754;19.680;2022-09-16T11:42:16;22.20;99.90
53432;DHT22;39329;44.754;19.680;2022-09-16T11:55:19;22.40;99.90
53432;DHT22;39329;44.754;19.680;2022-09-16T11:57:54;22.50;99.90
53432;DHT22;39329;44.754;19.680;2022-09-16T12:00:21;22.40;99.90
53432;DHT22;39329;44.754;19.680;2022-09-16T12:10:29;22.00;99.90
53432;DHT22;39329;44.754;19.680;2022-09-16T12:15:31;21.90;99.90
53432;DHT22;39329;44.754;19.680;2022-09-16T12:18:00;21.70;99.90
53432;DHT22;39329;44.754;19.680;2022-09-16T12:20:28;21.60;99.90
53432;DHT22;39329;44.754;19.680;2022-09-16T12:25:44;21.70;99.90
53432;DHT22;39329;44.754;19.680;2022-09-16T12:31:19;22.00;99.90
53432;DHT22;39329;44.754;19.680;2022-09-16T12:33:48;22.10;99.90
53432;DHT22;39329;44.754;19.680;2022-09-16T12:36:15;22.20;99.90
53432;DHT22;39329;44.754;19.680;2022-09-16T12:38:42;22.30;99.90
53432;DHT22;39329;44.754;19.680;2022-09-16T12:57:27;23.10;99.90
53432;DHT22;39329;44.754;19.680;2022-09-16T13:02:37;22.90;99.90
53432;DHT22;39329;44.754;19.680;2022-09-16T13:05:15;22.70;99.90
53432;DHT22;39329;44.754;19.680;2022-09-16T13:07:41;22.60;99.90
53432;DHT22;39329;44.754;19.680;2022-09-16T13:10:13;22.50;99.90
53432;DHT22;39329;44.754;19.680;2022-09-16T13:12:40;22.70;99.90
53432;DHT22;39329;44.754;19.680;2022-09-16T13:15:05;22.70;99.90
53432;DHT22;39329;44.754;19.680;2022-09-16T13:20:00;22.90;99.90
53432;DHT22;39329;44.754;19.680;2022-09-16T13:27:37;22.40;99.90
53432;DHT22;39329;44.754;19.680;2022-09-16T13:35:49;22.50;99.90
53432;DHT22;39329;44.754;19.680;2022-09-16T13:37:50;22.50;99.90
53432;DHT22;39329;44.754;19.680;2022-09-16T13:40:21;22.60;99.90
53432;DHT22;39329;44.754;19.680;2022-09-16T13:42:48;22.50;99.90
53432;DHT22;39329;44.754;19.680;2022-09-16T13:50:24;22.00;99.90
53432;DHT22;39329;44.754;19.680;2022-09-16T13:52:50;21.60;99.90
53432;DHT22;39329;44.754;19.680;2022-09-16T13:55:21;21.70;99.90
53432;DHT22;39329;44.754;19.680;2022-09-16T14:00:16;21.70;99.90
53432;DHT22;39329;44.754;19.680;2022-09-16T15:11:32;22.00;99.90
53432;DHT22;39329;44.754;19.680;2022-09-16T18:14:09;21.40;99.90
53432;DHT22;39329;44.754;19.680;2022-09-16T18:16:35;19.40;99.90
53432;DHT22;39329;44.754;19.680;2022-09-16T21:19:12;19.20;99.90
53432;DHT22;39329;44.754;19.680;2022-09-16T21:21:38;17.70;99.90
53432;DHT22;39329;44.754;19.680;2022-09-16T21:24:04;17.60;99.90
53432;DHT22;39329;44.754;19.680;2022-09-16T21:26:31;17.50;99.90
53432;DHT22;39329;44.754;19.680;2022-09-16T21:28:58;17.60;99.90
53432;DHT22;39329;44.754;19.680;2022-09-16T21:31:25;17.50;99.90
53432;DHT22;39329;44.754;19.680;2022-09-16T21:33:51;17.50;99.90
53432;DHT22;39329;44.754;19.680;2022-09-16T21:36:17;17.50;99.90
53432;DHT22;39329;44.754;19.680;2022-09-16T21:38:43;17.50;99.90
53432;DHT22;39329;44.754;19.680;2022-09-16T21:41:11;17.50;99.90
53432;DHT22;39329;44.754;19.680;2022-09-16T21:43:38;17.40;99.90
53432;DHT22;39329;44.754;19.680;2022-09-16T23:42:56;17.30;99.90
53432;DHT22;39329;44.754;19.680;2022-09-16T23:45:21;17.00;99.90
53432;DHT22;39329;44.754;19.680;2022-09-16T23:47:47;16.90;99.90
53432;DHT22;39329;44.754;19.680;2022-09-16T23:50:13;17.00;99.90
53432;DHT22;39329;44.754;19.680;2022-09-16T23:52:38;17.00;99.90
53432;DHT22;39329;44.754;19.680;2022-09-16T23:55:04;17.00;99.90
53432;DHT22;39329;44.754;19.680;2022-09-16T23:57:30;17.00;99.90
53432;DHT22;39329;44.754;19.680;2022-09-16T23:59:55;16.90;99.90
